createdAt,value
2018-04-24T00:00:53.601Z,10.30
2018-04-24T00:01:57.824Z,10.40
2018-04-24T00:03:02.192Z,10.40
2018-04-24T00:04:06.505Z,10.40
2018-04-24T00:05:10.808Z,10.30
2018-04-24T00:06:15.035Z,10.30
2018-04-24T00:07:19.241Z,10.30
2018-04-24T00:08:23.457Z,10.40
2018-04-24T00:09:27.649Z,10.30
2018-04-24T00:10:31.897Z,10.30
2018-04-24T00:11:36.105Z,10.30
2018-04-24T00:12:40.292Z,10.30
2018-04-24T00:13:44.503Z,10.30
2018-04-24T00:14:48.743Z,10.40
2018-04-24T00:15:53.342Z,10.40
2018-04-24T00:16:57.549Z,10.40
2018-04-24T00:18:01.767Z,10.30
2018-04-24T00:19:06.012Z,10.30
2018-04-24T00:20:10.270Z,10.40
2018-04-24T00:21:14.546Z,10.40
2018-04-24T00:22:18.757Z,10.30
2018-04-24T00:23:22.956Z,10.40
2018-04-24T00:24:27.166Z,10.30
2018-04-24T00:25:31.449Z,10.30
2018-04-24T00:26:35.846Z,10.30
2018-04-24T00:27:40.084Z,10.30
2018-04-24T00:28:44.284Z,10.30
2018-04-24T00:29:48.587Z,10.30
2018-04-24T00:30:52.994Z,10.30
2018-04-24T00:31:57.304Z,10.30
2018-04-24T00:33:01.545Z,10.30
2018-04-24T00:34:05.755Z,10.30
2018-04-24T00:35:09.962Z,10.30
2018-04-24T00:36:14.185Z,10.30
2018-04-24T00:37:18.389Z,10.30
2018-04-24T00:38:22.601Z,10.30
2018-04-24T00:39:26.816Z,10.30
2018-04-24T00:40:31.101Z,10.30
2018-04-24T00:41:36.090Z,10.40
2018-04-24T00:42:40.296Z,10.30
2018-04-24T00:43:44.588Z,10.30
2018-04-24T00:44:48.862Z,10.30
2018-04-24T00:45:53.252Z,10.30
2018-04-24T00:46:57.416Z,10.30
2018-04-24T00:48:01.632Z,10.40
2018-04-24T00:49:05.825Z,10.40
2018-04-24T00:50:10.228Z,10.30
2018-04-24T00:51:14.751Z,10.30
2018-04-24T00:52:19.160Z,10.30
2018-04-24T00:53:40.461Z,10.40
2018-04-24T00:54:44.667Z,10.40
2018-04-24T00:55:49.080Z,10.40
2018-04-24T00:56:53.509Z,10.40
2018-04-24T00:57:57.783Z,10.40
2018-04-24T00:59:02.003Z,10.40
2018-04-24T01:00:06.969Z,10.40
2018-04-24T01:01:11.362Z,10.40
2018-04-24T01:02:15.898Z,10.40
2018-04-24T01:03:20.113Z,10.40
2018-04-24T01:04:24.331Z,10.40
2018-04-24T01:05:28.618Z,10.40
2018-04-24T01:06:32.934Z,10.40
2018-04-24T01:07:37.370Z,10.40
2018-04-24T01:08:41.592Z,10.40
2018-04-24T01:09:45.891Z,10.40
2018-04-24T01:10:50.098Z,10.30
2018-04-24T01:11:54.409Z,10.30
2018-04-24T01:12:59.136Z,10.30
2018-04-24T01:14:03.349Z,10.30
2018-04-24T01:15:07.639Z,10.30
2018-04-24T01:16:11.877Z,10.30
2018-04-24T01:17:16.118Z,10.30
2018-04-24T01:18:20.356Z,10.30
2018-04-24T01:19:25.549Z,10.30
2018-04-24T01:20:29.757Z,10.30
2018-04-24T01:21:33.960Z,10.30
2018-04-24T01:22:38.174Z,10.30
2018-04-24T01:23:42.400Z,10.20
2018-04-24T01:24:46.779Z,10.30
2018-04-24T01:25:51.092Z,10.30
2018-04-24T01:26:55.302Z,10.30
2018-04-24T01:27:59.606Z,10.20
2018-04-24T01:29:03.922Z,10.30
2018-04-24T01:30:08.155Z,10.30
2018-04-24T01:31:12.375Z,10.30
2018-04-24T01:32:16.767Z,10.20
2018-04-24T01:33:21.002Z,10.20
2018-04-24T01:34:25.707Z,10.20
2018-04-24T01:35:30.000Z,10.20
2018-04-24T01:36:34.218Z,10.10
2018-04-24T01:37:38.538Z,10.10
2018-04-24T01:38:42.757Z,10.10
2018-04-24T01:39:47.010Z,10.10
2018-04-24T01:40:51.218Z,10.10
2018-04-24T01:41:55.415Z,10.10
2018-04-24T01:42:59.612Z,10.10
2018-04-24T01:44:03.995Z,10.10
2018-04-24T01:45:08.506Z,10.10
2018-04-24T01:46:13.488Z,10.10
2018-04-24T01:47:17.850Z,10.00
2018-04-24T01:48:22.086Z,10.00
2018-04-24T01:49:26.686Z,10.10
2018-04-24T01:50:30.884Z,10.00
2018-04-24T01:51:35.864Z,10.00
2018-04-24T01:52:40.136Z,10.00
2018-04-24T01:53:44.656Z,10.00
2018-04-24T01:54:49.084Z,10.00
2018-04-24T01:55:53.296Z,10.00
2018-04-24T01:56:57.506Z,10.00
2018-04-24T01:58:01.722Z,10.00
2018-04-24T01:59:05.985Z,10.00
2018-04-24T02:00:11.470Z,10.00
2018-04-24T02:01:15.667Z,9.90
2018-04-24T02:02:19.948Z,10.00
2018-04-24T02:03:24.968Z,10.00
2018-04-24T02:04:29.170Z,9.90
2018-04-24T02:05:33.647Z,9.90
2018-04-24T02:06:37.854Z,9.90
2018-04-24T02:07:42.041Z,9.90
2018-04-24T02:08:47.022Z,9.90
2018-04-24T02:09:51.297Z,9.90
2018-04-24T02:10:56.293Z,9.80
2018-04-24T02:12:00.489Z,9.80
2018-04-24T02:13:05.680Z,9.80
2018-04-24T02:14:10.392Z,9.80
2018-04-24T02:15:14.688Z,9.80
2018-04-24T02:16:19.847Z,9.80
2018-04-24T02:17:24.065Z,9.80
2018-04-24T02:18:28.284Z,9.70
2018-04-24T02:19:32.791Z,9.70
2018-04-24T02:20:37.002Z,9.70
2018-04-24T02:21:41.210Z,9.70
2018-04-24T02:22:45.396Z,9.70
2018-04-24T02:23:50.401Z,9.60
2018-04-24T02:24:54.626Z,9.60
2018-04-24T02:25:59.605Z,9.60
2018-04-24T02:27:03.810Z,9.60
2018-04-24T02:28:08.554Z,9.60
2018-04-24T02:29:12.755Z,9.60
2018-04-24T02:30:16.968Z,9.60
2018-04-24T02:31:21.160Z,9.60
2018-04-24T02:32:25.383Z,9.60
2018-04-24T02:33:29.676Z,9.60
2018-04-24T02:34:33.975Z,9.60
2018-04-24T02:35:38.250Z,9.60
2018-04-24T02:36:42.458Z,9.60
2018-04-24T02:37:46.662Z,9.60
2018-04-24T02:38:50.861Z,9.60
2018-04-24T02:39:55.074Z,9.60
2018-04-24T02:40:59.333Z,9.60
2018-04-24T02:42:03.541Z,9.60
2018-04-24T02:43:08.503Z,9.50
2018-04-24T02:44:12.706Z,9.50
2018-04-24T02:45:16.938Z,9.50
2018-04-24T02:46:21.490Z,9.50
2018-04-24T02:47:25.699Z,9.50
2018-04-24T02:48:30.054Z,9.50
2018-04-24T02:49:34.365Z,9.50
2018-04-24T02:50:38.579Z,9.50
2018-04-24T02:51:42.792Z,9.50
2018-04-24T02:52:47.099Z,9.50
2018-04-24T02:53:51.307Z,9.60
2018-04-24T02:54:55.705Z,9.60
2018-04-24T02:56:01.291Z,9.60
2018-04-24T02:57:05.688Z,9.50
2018-04-24T02:58:09.986Z,9.50
2018-04-24T02:59:14.941Z,9.60
2018-04-24T03:00:19.161Z,9.60
2018-04-24T03:01:23.374Z,9.60
2018-04-24T03:02:27.747Z,9.60
2018-04-24T03:03:31.950Z,9.60
2018-04-24T03:04:37.319Z,9.60
2018-04-24T03:05:41.525Z,9.60
2018-04-24T03:06:45.749Z,9.50
2018-04-24T03:07:49.956Z,9.60
2018-04-24T03:08:54.201Z,9.50
2018-04-24T03:09:58.447Z,9.50
2018-04-24T03:11:03.461Z,9.50
2018-04-24T03:12:08.595Z,9.60
2018-04-24T03:13:12.862Z,9.50
2018-04-24T03:14:17.086Z,9.60
2018-04-24T03:15:21.459Z,9.60
2018-04-24T03:16:25.648Z,9.60
2018-04-24T03:17:30.662Z,9.60
2018-04-24T03:18:34.911Z,9.60
2018-04-24T03:19:39.140Z,9.70
2018-04-24T03:20:43.336Z,9.70
2018-04-24T03:21:47.644Z,9.70
2018-04-24T03:22:51.827Z,9.80
2018-04-24T03:23:56.288Z,9.70
2018-04-24T03:25:00.609Z,9.80
2018-04-24T03:26:04.821Z,9.80
2018-04-24T03:27:09.033Z,9.80
2018-04-24T03:28:13.260Z,9.80
2018-04-24T03:29:17.486Z,9.80
2018-04-24T03:30:21.672Z,9.90
2018-04-24T03:31:25.960Z,9.90
2018-04-24T03:32:30.277Z,9.90
2018-04-24T03:33:34.571Z,9.90
2018-04-24T03:34:39.014Z,9.90
2018-04-24T03:35:43.273Z,9.90
2018-04-24T03:36:47.631Z,9.90
2018-04-24T03:37:51.922Z,9.90
2018-04-24T03:38:56.876Z,9.90
2018-04-24T03:40:01.286Z,9.90
2018-04-24T03:41:05.495Z,9.90
2018-04-24T03:42:09.789Z,9.90
2018-04-24T03:43:14.741Z,9.90
2018-04-24T03:44:18.950Z,9.90
2018-04-24T03:45:23.191Z,9.90
2018-04-24T03:46:27.388Z,9.90
2018-04-24T03:47:31.624Z,9.90
2018-04-24T03:48:35.835Z,9.90
2018-04-24T03:49:40.078Z,9.90
2018-04-24T03:50:45.108Z,9.90
2018-04-24T03:51:50.142Z,9.90
2018-04-24T03:52:55.091Z,9.90
2018-04-24T03:53:59.379Z,9.90
2018-04-24T03:55:04.384Z,9.90
2018-04-24T03:56:08.749Z,9.90
2018-04-24T03:57:13.150Z,9.90
2018-04-24T03:58:18.096Z,9.90
2018-04-24T03:59:22.392Z,9.90
2018-04-24T04:00:26.668Z,9.90
2018-04-24T04:01:30.916Z,9.90
2018-04-24T04:02:35.160Z,9.90
2018-04-24T04:03:39.383Z,9.90
2018-04-24T04:04:43.581Z,9.90
2018-04-24T04:05:47.814Z,9.90
2018-04-24T04:06:52.342Z,9.90
2018-04-24T04:07:56.541Z,9.90
2018-04-24T04:09:01.541Z,9.90
2018-04-24T04:10:05.764Z,9.90
2018-04-24T04:11:10.002Z,9.80
2018-04-24T04:12:15.086Z,9.80
2018-04-24T04:13:19.520Z,9.80
2018-04-24T04:14:23.722Z,9.80
2018-04-24T04:15:27.935Z,9.90
2018-04-24T04:16:32.234Z,9.80
2018-04-24T04:17:54.184Z,9.80
2018-04-24T04:19:16.408Z,9.90
2018-04-24T04:20:38.441Z,9.90
2018-04-24T04:22:00.482Z,9.90
2018-04-24T04:23:22.354Z,9.90
2018-04-24T04:24:40.927Z,9.90
2018-04-24T04:25:45.138Z,9.90
2018-04-24T04:26:49.363Z,9.90
2018-04-24T04:27:53.560Z,9.90
2018-04-24T04:28:57.941Z,9.90
2018-04-24T04:30:03.312Z,9.90
2018-04-24T04:31:07.551Z,9.90
2018-04-24T04:32:11.943Z,9.90
2018-04-24T04:33:16.220Z,10.00
2018-04-24T04:34:21.916Z,9.90
2018-04-24T04:35:26.420Z,9.90
2018-04-24T04:36:30.604Z,9.90
2018-04-24T04:37:35.588Z,9.90
2018-04-24T04:38:39.805Z,9.90
2018-04-24T04:39:44.179Z,9.90
2018-04-24T04:40:48.594Z,9.90
2018-04-24T04:41:52.836Z,9.90
2018-04-24T04:42:57.081Z,9.90
2018-04-24T04:44:02.087Z,9.90
2018-04-24T04:45:06.331Z,9.90
2018-04-24T04:46:11.419Z,9.90
2018-04-24T04:47:15.582Z,9.90
2018-04-24T04:48:20.544Z,9.90
2018-04-24T04:49:24.764Z,9.90
2018-04-24T04:50:29.144Z,9.90
2018-04-24T04:51:33.384Z,9.90
2018-04-24T04:52:37.600Z,9.90
2018-04-24T04:53:41.887Z,9.90
2018-04-24T04:54:46.203Z,9.90
2018-04-24T04:55:50.415Z,9.90
2018-04-24T04:56:54.604Z,9.90
2018-04-24T04:57:59.653Z,9.90
2018-04-24T04:59:03.862Z,9.90
2018-04-24T05:00:08.067Z,9.90
2018-04-24T05:01:12.317Z,10.00
2018-04-24T05:02:16.538Z,9.90
2018-04-24T05:03:20.755Z,9.90
2018-04-24T05:04:25.305Z,9.90
2018-04-24T05:05:29.640Z,10.00
2018-04-24T05:06:33.827Z,10.00
2018-04-24T05:07:38.975Z,10.00
2018-04-24T05:08:43.218Z,9.90
2018-04-24T05:09:47.607Z,10.00
2018-04-24T05:10:51.805Z,10.00
2018-04-24T05:11:56.133Z,10.00
2018-04-24T05:13:00.368Z,9.90
2018-04-24T05:14:04.606Z,10.00
2018-04-24T05:15:08.826Z,10.00
2018-04-24T05:16:13.041Z,10.00
2018-04-24T05:17:18.014Z,10.00
2018-04-24T05:18:22.301Z,10.00
2018-04-24T05:19:26.506Z,10.00
2018-04-24T05:20:31.621Z,10.00
2018-04-24T05:21:35.827Z,10.00
2018-04-24T05:22:40.019Z,10.00
2018-04-24T05:23:44.228Z,10.10
2018-04-24T05:24:48.439Z,10.00
2018-04-24T05:25:52.706Z,10.10
2018-04-24T05:26:57.021Z,10.00
2018-04-24T05:28:01.578Z,10.00
2018-04-24T05:29:05.784Z,10.10
2018-04-24T05:30:10.164Z,10.10
2018-04-24T05:31:14.362Z,10.00
2018-04-24T05:32:18.561Z,10.00
2018-04-24T05:33:22.781Z,10.00
2018-04-24T05:34:26.983Z,10.00
2018-04-24T05:35:32.029Z,10.00
2018-04-24T05:36:37.064Z,10.00
2018-04-24T05:37:41.702Z,10.00
2018-04-24T05:38:45.894Z,10.00
2018-04-24T05:39:50.113Z,10.00
2018-04-24T05:40:54.300Z,10.00
2018-04-24T05:41:59.279Z,10.00
2018-04-24T05:43:03.544Z,10.00
2018-04-24T05:44:07.764Z,10.00
2018-04-24T05:45:11.982Z,10.00
2018-04-24T05:46:16.261Z,10.00
2018-04-24T05:47:20.505Z,10.00
2018-04-24T05:48:24.755Z,10.00
2018-04-24T05:49:29.231Z,10.00
2018-04-24T05:50:33.435Z,10.10
2018-04-24T05:51:38.463Z,10.00
2018-04-24T05:52:43.594Z,10.00
2018-04-24T05:53:48.744Z,10.10
2018-04-24T05:54:53.378Z,10.00
2018-04-24T05:55:57.589Z,10.00
2018-04-24T05:57:01.948Z,10.00
2018-04-24T05:58:06.166Z,10.00
2018-04-24T05:59:11.227Z,10.00
2018-04-24T06:00:15.850Z,10.00
2018-04-24T06:01:20.041Z,10.00
2018-04-24T06:02:25.250Z,10.00
2018-04-24T06:03:30.231Z,10.00
2018-04-24T06:04:34.465Z,10.00
2018-04-24T06:05:38.693Z,10.00
2018-04-24T06:06:42.896Z,10.00
2018-04-24T06:07:47.377Z,10.00
2018-04-24T06:08:51.723Z,10.00
2018-04-24T06:09:55.947Z,10.00
2018-04-24T06:11:00.152Z,10.00
2018-04-24T06:12:04.357Z,10.00
2018-04-24T06:13:08.984Z,10.10
2018-04-24T06:14:13.356Z,10.20
2018-04-24T06:15:17.579Z,10.10
2018-04-24T06:16:21.868Z,10.10
2018-04-24T06:17:26.134Z,10.20
2018-04-24T06:18:30.505Z,10.20
2018-04-24T06:19:34.856Z,10.20
2018-04-24T06:20:39.050Z,10.20
2018-04-24T06:21:43.265Z,10.20
2018-04-24T06:22:47.654Z,10.30
2018-04-24T06:23:52.368Z,10.30
2018-04-24T06:24:56.563Z,10.20
2018-04-24T06:26:01.750Z,10.30
2018-04-24T06:27:06.248Z,10.30
2018-04-24T06:28:10.448Z,10.30
2018-04-24T06:29:14.677Z,10.30
2018-04-24T06:30:18.893Z,10.30
2018-04-24T06:31:23.284Z,10.30
2018-04-24T06:32:27.479Z,10.40
2018-04-24T06:33:31.757Z,10.40
2018-04-24T06:34:35.981Z,10.40
2018-04-24T06:35:40.222Z,10.40
2018-04-24T06:36:44.401Z,10.30
2018-04-24T06:37:49.390Z,10.30
2018-04-24T06:38:53.636Z,10.30
2018-04-24T06:39:57.832Z,10.30
2018-04-24T06:41:02.064Z,10.30
2018-04-24T06:42:07.087Z,10.30
2018-04-24T06:43:11.642Z,10.40
2018-04-24T06:44:15.850Z,10.40
2018-04-24T06:45:21.233Z,10.40
2018-04-24T06:46:25.467Z,10.40
2018-04-24T06:47:29.813Z,10.30
2018-04-24T06:48:34.462Z,10.40
2018-04-24T06:49:38.675Z,10.50
2018-04-24T06:50:42.901Z,10.50
2018-04-24T06:51:47.125Z,10.40
2018-04-24T06:52:51.320Z,10.50
2018-04-24T06:53:55.563Z,10.50
2018-04-24T06:55:00.930Z,10.50
2018-04-24T06:56:05.128Z,10.50
2018-04-24T06:57:10.280Z,10.50
2018-04-24T06:58:14.479Z,10.50
2018-04-24T06:59:27.546Z,10.40
2018-04-24T07:00:32.225Z,10.40
2018-04-24T07:01:36.477Z,10.40
2018-04-24T07:02:40.704Z,10.40
2018-04-24T07:03:45.023Z,10.40
2018-04-24T07:04:50.753Z,10.40
2018-04-24T07:05:55.151Z,10.40
2018-04-24T07:06:59.356Z,10.40
2018-04-24T07:08:03.955Z,10.40
2018-04-24T07:09:08.385Z,10.40
2018-04-24T07:10:12.680Z,10.40
2018-04-24T07:11:17.414Z,10.40
2018-04-24T07:12:21.951Z,10.50
2018-04-24T07:13:26.237Z,10.50
2018-04-24T07:14:31.844Z,10.50
2018-04-24T07:15:36.339Z,10.60
2018-04-24T07:16:40.716Z,10.60
2018-04-24T07:17:44.913Z,10.50
2018-04-24T07:18:50.125Z,10.70
2018-04-24T07:19:54.375Z,10.60
2018-04-24T07:20:59.676Z,10.70
2018-04-24T07:22:04.253Z,10.70
2018-04-24T07:23:09.882Z,10.70
2018-04-24T07:24:14.121Z,10.70
2018-04-24T07:25:18.326Z,10.70
2018-04-24T07:26:22.535Z,10.70
2018-04-24T07:27:26.923Z,10.80
2018-04-24T07:28:31.141Z,10.90
2018-04-24T07:29:35.449Z,10.90
2018-04-24T07:30:39.659Z,11.00
2018-04-24T07:31:43.891Z,11.10
2018-04-24T07:32:48.448Z,11.10
2018-04-24T07:33:52.637Z,11.20
2018-04-24T07:34:56.859Z,11.20
2018-04-24T07:36:02.784Z,11.30
2018-04-24T07:37:07.339Z,11.30
2018-04-24T07:38:11.901Z,11.30
2018-04-24T07:39:16.774Z,11.30
2018-04-24T07:40:22.725Z,11.30
2018-04-24T07:41:28.619Z,11.20
2018-04-24T07:42:32.944Z,11.20
2018-04-24T07:43:37.368Z,11.20
2018-04-24T07:44:41.781Z,11.20
2018-04-24T07:45:45.989Z,11.20
2018-04-24T07:46:50.679Z,11.20
2018-04-24T07:47:55.082Z,11.10
2018-04-24T07:49:00.007Z,11.10
2018-04-24T07:50:07.166Z,11.20
2018-04-24T07:51:11.434Z,11.10
2018-04-24T07:52:15.759Z,11.20
2018-04-24T07:53:19.967Z,11.20
2018-04-24T07:54:24.707Z,11.20
2018-04-24T07:55:28.920Z,11.20
2018-04-24T07:56:33.120Z,11.20
2018-04-24T07:57:37.413Z,11.20
2018-04-24T07:58:42.753Z,11.20
2018-04-24T07:59:47.182Z,11.20
2018-04-24T08:00:51.426Z,11.20
2018-04-24T08:01:55.682Z,11.20
2018-04-24T08:03:01.242Z,11.20
2018-04-24T08:04:07.811Z,11.20
2018-04-24T08:05:12.029Z,11.20
2018-04-24T08:06:16.225Z,11.20
2018-04-24T08:07:21.212Z,11.00
2018-04-24T08:08:25.425Z,11.00
2018-04-24T08:09:29.795Z,11.00
2018-04-24T08:10:34.038Z,10.90
2018-04-24T08:11:38.576Z,10.90
2018-04-24T08:12:42.772Z,10.90
2018-04-24T08:13:47.007Z,10.90
2018-04-24T08:14:51.204Z,10.90
2018-04-24T08:15:55.572Z,10.90
2018-04-24T08:16:59.802Z,10.90
2018-04-24T08:18:04.200Z,10.90
2018-04-24T08:19:08.417Z,11.00
2018-04-24T08:20:12.621Z,10.90
2018-04-24T08:21:16.939Z,11.00
2018-04-24T08:24:28.725Z,10.90
2018-04-24T08:25:32.940Z,10.80
2018-04-24T08:26:37.271Z,10.80
2018-04-24T08:27:41.491Z,10.90
2018-04-24T08:28:45.752Z,10.80
2018-04-24T08:29:50.908Z,10.70
2018-04-24T08:30:55.880Z,10.70
2018-04-24T08:32:00.106Z,10.70
2018-04-24T08:33:04.320Z,10.70
2018-04-24T08:34:08.749Z,10.70
2018-04-24T08:35:13.808Z,10.70
2018-04-24T08:36:18.055Z,10.70
2018-04-24T08:37:22.351Z,10.70
2018-04-24T08:38:26.579Z,10.70
2018-04-24T08:39:30.817Z,10.60
2018-04-24T08:40:35.177Z,10.60
2018-04-24T08:41:39.456Z,10.70
2018-04-24T08:42:44.442Z,10.70
2018-04-24T08:43:49.156Z,10.70
2018-04-24T08:44:53.413Z,10.70
2018-04-24T08:45:57.620Z,10.70
2018-04-24T08:47:01.846Z,10.70
2018-04-24T08:48:06.180Z,10.80
2018-04-24T08:49:10.440Z,10.80
2018-04-24T08:50:14.671Z,10.80
2018-04-24T08:51:18.884Z,10.80
2018-04-24T08:52:23.131Z,10.90
2018-04-24T08:53:27.453Z,10.90
2018-04-24T08:54:31.679Z,11.00
2018-04-24T08:55:35.967Z,11.10
2018-04-24T08:56:40.393Z,11.10
2018-04-24T08:57:44.597Z,11.10
2018-04-24T08:58:48.899Z,11.10
2018-04-24T08:59:53.251Z,11.20
2018-04-24T09:00:57.574Z,11.20
2018-04-24T09:02:01.819Z,11.20
2018-04-24T09:03:06.810Z,11.30
2018-04-24T09:04:11.195Z,11.30
2018-04-24T09:05:15.430Z,11.30
2018-04-24T09:06:19.653Z,11.30
2018-04-24T09:07:23.892Z,11.30
2018-04-24T09:08:28.415Z,11.30
2018-04-24T09:09:32.611Z,11.30
2018-04-24T09:10:36.813Z,11.40
2018-04-24T09:11:41.020Z,11.30
2018-04-24T09:12:45.261Z,11.30
2018-04-24T09:13:50.272Z,11.30
2018-04-24T09:14:54.508Z,11.30
2018-04-24T09:15:59.477Z,11.40
2018-04-24T09:17:03.683Z,11.40
2018-04-24T09:18:07.970Z,11.40
2018-04-24T09:19:12.241Z,11.40
2018-04-24T09:20:16.458Z,11.50
2018-04-24T09:21:20.697Z,11.50
2018-04-24T09:22:24.971Z,11.50
2018-04-24T09:23:29.180Z,11.60
2018-04-24T09:24:33.458Z,11.60
2018-04-24T09:25:37.684Z,11.50
2018-04-24T09:26:41.926Z,11.60
2018-04-24T09:27:46.176Z,11.60
2018-04-24T09:28:50.392Z,11.70
2018-04-24T09:30:00.117Z,11.80
2018-04-24T09:31:04.396Z,11.90
2018-04-24T09:32:08.823Z,12.00
2018-04-24T09:33:12.992Z,12.10
2018-04-24T09:34:17.211Z,12.10
2018-04-24T09:35:26.976Z,12.10
2018-04-24T09:36:31.338Z,12.10
2018-04-24T09:37:35.560Z,12.00
2018-04-24T09:38:39.864Z,11.90
2018-04-24T09:39:45.814Z,11.90
2018-04-24T09:40:50.078Z,11.90
2018-04-24T09:41:54.358Z,11.90
2018-04-24T09:42:58.569Z,11.90
2018-04-24T09:44:02.892Z,11.90
2018-04-24T09:45:07.805Z,11.90
2018-04-24T09:46:12.018Z,11.90
2018-04-24T09:47:16.231Z,11.90
2018-04-24T09:48:20.456Z,11.90
2018-04-24T09:49:24.744Z,11.90
2018-04-24T09:50:28.997Z,11.90
2018-04-24T09:51:33.214Z,12.00
2018-04-24T09:52:37.415Z,12.00
2018-04-24T09:53:42.414Z,12.00
2018-04-24T09:54:47.121Z,12.00
2018-04-24T09:55:51.354Z,12.00
2018-04-24T09:56:55.601Z,12.00
2018-04-24T09:57:59.910Z,12.00
2018-04-24T09:59:04.268Z,12.10
2018-04-24T10:00:08.538Z,12.10
2018-04-24T10:01:13.504Z,12.20
2018-04-24T10:02:17.790Z,12.20
2018-04-24T10:03:21.954Z,12.20
2018-04-24T10:04:26.340Z,12.20
2018-04-24T10:05:30.579Z,12.20
2018-04-24T10:06:34.983Z,12.30
2018-04-24T10:07:39.593Z,12.30
2018-04-24T10:08:43.806Z,12.40
2018-04-24T10:09:48.321Z,12.50
2018-04-24T10:10:52.585Z,12.60
2018-04-24T10:11:56.801Z,12.60
2018-04-24T10:13:01.076Z,12.60
2018-04-24T10:14:05.457Z,12.60
2018-04-24T10:15:09.658Z,12.60
2018-04-24T10:16:14.675Z,12.50
2018-04-24T10:17:18.935Z,12.50
2018-04-24T10:18:23.205Z,12.40
2018-04-24T10:19:28.174Z,12.40
2018-04-24T10:20:32.603Z,12.40
2018-04-24T10:21:36.817Z,12.40
2018-04-24T10:22:41.044Z,12.30
2018-04-24T10:23:45.269Z,12.40
2018-04-24T10:24:50.323Z,12.50
2018-04-24T10:25:55.337Z,12.50
2018-04-24T10:27:00.514Z,12.60
2018-04-24T10:28:04.730Z,12.50
2018-04-24T10:29:08.976Z,12.60
2018-04-24T10:30:13.334Z,12.60
2018-04-24T10:31:17.543Z,12.60
2018-04-24T10:32:22.249Z,12.70
2018-04-24T10:33:26.475Z,12.70
2018-04-24T10:34:30.675Z,12.80
2018-04-24T10:35:35.709Z,12.80
2018-04-24T10:36:40.851Z,12.80
2018-04-24T10:37:45.139Z,12.80
2018-04-24T10:38:50.116Z,12.90
2018-04-24T10:39:54.327Z,12.90
2018-04-24T10:40:58.618Z,13.10
2018-04-24T10:42:02.849Z,13.20
2018-04-24T10:43:07.493Z,13.20
2018-04-24T10:44:11.707Z,13.20
2018-04-24T10:45:15.926Z,13.40
2018-04-24T10:46:20.273Z,13.50
2018-04-24T10:47:25.293Z,13.70
2018-04-24T10:48:30.416Z,13.60
2018-04-24T10:49:34.635Z,13.60
2018-04-24T10:50:39.631Z,13.50
2018-04-24T10:51:43.962Z,13.50
2018-04-24T10:52:48.212Z,13.50
2018-04-24T10:53:52.650Z,13.40
2018-04-24T10:54:57.729Z,13.30
2018-04-24T10:56:02.772Z,13.10
2018-04-24T10:57:07.108Z,13.10
2018-04-24T10:58:11.307Z,13.10
2018-04-24T10:59:15.788Z,13.10
2018-04-24T11:00:19.980Z,13.00
2018-04-24T11:01:24.190Z,13.00
2018-04-24T11:02:28.417Z,12.90
2018-04-24T11:03:32.774Z,13.00
2018-04-24T11:04:37.101Z,13.00
2018-04-24T11:05:41.308Z,13.00
2018-04-24T11:06:45.706Z,13.00
2018-04-24T11:07:50.843Z,12.90
2018-04-24T11:08:55.054Z,12.90
2018-04-24T11:09:59.267Z,12.90
2018-04-24T11:11:03.487Z,12.90
2018-04-24T11:12:07.894Z,12.90
2018-04-24T11:13:12.218Z,12.90
2018-04-24T11:14:16.424Z,13.00
2018-04-24T11:15:20.629Z,13.00
2018-04-24T11:16:24.844Z,12.90
2018-04-24T11:17:29.249Z,12.90
2018-04-24T11:18:34.220Z,12.90
2018-04-24T11:19:38.435Z,12.90
2018-04-24T11:20:42.653Z,12.90
2018-04-24T11:21:46.923Z,12.90
2018-04-24T11:22:51.153Z,12.90
2018-04-24T11:23:55.963Z,12.90
2018-04-24T11:25:00.276Z,12.90
2018-04-24T11:26:04.673Z,12.80
2018-04-24T11:27:08.895Z,12.80
2018-04-24T11:28:13.099Z,12.80
2018-04-24T11:29:17.382Z,12.80
2018-04-24T11:30:23.165Z,12.90
2018-04-24T11:31:28.178Z,13.00
2018-04-24T11:32:33.257Z,13.10
2018-04-24T11:33:37.461Z,13.10
2018-04-24T11:34:41.759Z,13.00
2018-04-24T11:35:45.975Z,13.00
2018-04-24T11:36:50.226Z,12.90
2018-04-24T11:37:55.105Z,12.90
2018-04-24T11:38:59.421Z,12.90
2018-04-24T11:40:03.629Z,12.90
2018-04-24T11:41:07.871Z,12.90
2018-04-24T11:42:12.084Z,12.90
2018-04-24T11:43:16.324Z,12.80
2018-04-24T11:44:22.036Z,12.90
2018-04-24T11:45:26.402Z,12.80
2018-04-24T11:46:31.364Z,12.90
2018-04-24T11:47:35.625Z,13.00
2018-04-24T11:48:39.910Z,12.90
2018-04-24T11:49:44.106Z,12.90
2018-04-24T11:50:48.329Z,12.90
2018-04-24T11:51:52.599Z,12.80
2018-04-24T11:52:57.014Z,12.80
2018-04-24T11:54:01.227Z,12.80
2018-04-24T11:55:05.449Z,12.70
2018-04-24T11:56:09.650Z,12.60
2018-04-24T11:57:13.859Z,12.60
2018-04-24T11:58:18.470Z,12.60
2018-04-24T11:59:22.709Z,12.60
2018-04-24T12:00:27.003Z,12.50
2018-04-24T12:01:31.205Z,12.50
2018-04-24T12:02:35.435Z,12.50
2018-04-24T12:03:39.834Z,12.50
2018-04-24T12:04:44.050Z,12.50
2018-04-24T12:05:48.359Z,12.50
2018-04-24T12:06:52.599Z,12.50
2018-04-24T12:07:56.796Z,12.40
2018-04-24T12:09:01.204Z,12.40
2018-04-24T12:10:05.723Z,12.40
2018-04-24T12:11:10.047Z,12.40
2018-04-24T12:12:14.249Z,12.40
2018-04-24T12:13:18.483Z,12.40
2018-04-24T12:14:22.885Z,12.40
2018-04-24T12:15:27.093Z,12.50
2018-04-24T12:16:31.314Z,12.50
2018-04-24T12:17:35.529Z,12.60
2018-04-24T12:18:39.742Z,12.60
2018-04-24T12:19:44.240Z,12.60
2018-04-24T12:20:48.454Z,12.60
2018-04-24T12:21:52.652Z,12.60
2018-04-24T12:22:56.862Z,12.70
2018-04-24T12:24:01.076Z,12.70
2018-04-24T12:25:05.355Z,12.90
2018-04-24T12:26:10.532Z,13.10
2018-04-24T12:27:14.806Z,13.10
2018-04-24T12:28:19.800Z,13.40
2018-04-24T12:29:24.182Z,13.40
2018-04-24T12:30:28.562Z,13.60
2018-04-24T12:31:32.925Z,13.90
2018-04-24T12:32:37.167Z,13.90
2018-04-24T12:33:41.373Z,14.00
2018-04-24T12:34:45.735Z,14.00
2018-04-24T12:35:50.046Z,14.00
2018-04-24T12:36:55.527Z,14.00
2018-04-24T12:37:59.753Z,14.00
2018-04-24T12:39:04.930Z,14.10
2018-04-24T12:40:09.906Z,14.10
2018-04-24T12:41:14.093Z,14.10
2018-04-24T12:42:18.481Z,14.10
2018-04-24T12:43:23.450Z,14.20
2018-04-24T12:44:27.830Z,14.20
2018-04-24T12:45:32.054Z,14.20
2018-04-24T12:46:36.276Z,14.20
2018-04-24T12:47:40.476Z,14.20
2018-04-24T12:48:44.672Z,14.10
2018-04-24T12:49:49.101Z,14.10
2018-04-24T12:50:53.359Z,14.10
2018-04-24T12:51:57.556Z,14.00
2018-04-24T12:53:01.806Z,13.90
2018-04-24T12:54:06.802Z,13.80
2018-04-24T12:55:11.036Z,13.80
2018-04-24T12:56:15.318Z,13.80
2018-04-24T12:57:19.512Z,13.70
2018-04-24T12:58:23.722Z,13.70
2018-04-24T12:59:27.935Z,13.70
2018-04-24T13:00:32.382Z,13.60
2018-04-24T13:01:36.636Z,13.60
2018-04-24T13:02:40.924Z,13.50
2018-04-24T13:03:45.956Z,13.40
2018-04-24T13:04:51.120Z,13.20
2018-04-24T13:05:55.422Z,13.20
2018-04-24T13:06:59.635Z,13.20
2018-04-24T13:08:03.883Z,13.20
2018-04-24T13:09:08.174Z,13.20
2018-04-24T13:10:12.692Z,13.20
2018-04-24T13:11:16.959Z,13.20
2018-04-24T13:12:21.178Z,13.20
2018-04-24T13:13:26.242Z,13.20
2018-04-24T13:14:30.463Z,13.20
2018-04-24T13:15:35.305Z,13.20
2018-04-24T13:16:39.594Z,13.20
2018-04-24T13:17:43.881Z,13.30
2018-04-24T13:18:49.018Z,13.30
2018-04-24T13:19:54.041Z,13.30
2018-04-24T13:20:59.034Z,13.40
2018-04-24T13:22:03.254Z,13.30
2018-04-24T13:23:07.969Z,13.40
2018-04-24T13:24:12.968Z,13.30
2018-04-24T13:25:17.270Z,13.30
2018-04-24T13:26:21.585Z,13.40
2018-04-24T13:27:25.897Z,13.40
2018-04-24T13:28:30.178Z,13.50
2018-04-24T13:29:34.732Z,13.50
2018-04-24T13:30:38.950Z,13.60
2018-04-24T13:31:43.214Z,13.50
2018-04-24T13:32:48.947Z,13.50
2018-04-24T13:33:53.637Z,13.50
2018-04-24T13:34:57.902Z,13.50
2018-04-24T13:36:02.887Z,13.40
2018-04-24T13:37:07.275Z,13.40
2018-04-24T13:38:11.501Z,13.40
2018-04-24T13:39:15.729Z,13.40
2018-04-24T13:40:19.962Z,13.40
2018-04-24T13:41:24.188Z,13.40
2018-04-24T13:42:29.169Z,13.40
2018-04-24T13:43:33.568Z,13.30
2018-04-24T13:44:37.980Z,13.40
2018-04-24T13:45:42.178Z,13.50
2018-04-24T13:46:46.392Z,13.60
2018-04-24T13:47:50.650Z,13.70
2018-04-24T13:48:54.878Z,13.80
2018-04-24T13:50:00.057Z,13.80
2018-04-24T13:51:04.331Z,13.80
2018-04-24T13:52:09.317Z,13.80
2018-04-24T13:53:13.561Z,13.80
2018-04-24T13:54:17.793Z,13.80
2018-04-24T13:55:23.006Z,13.80
2018-04-24T13:56:27.213Z,13.80
2018-04-24T13:57:31.427Z,13.80
2018-04-24T13:58:35.654Z,13.80
2018-04-24T13:59:40.661Z,13.80
2018-04-24T14:00:45.027Z,13.70